Time;durP1;ratioP1;P1;durP2;ratioP2;P2;SDS_P1;SDS_P2;PMS_P1;PMS_P2;Temp;Humidity;BMP_temperature;BMP_pressure;BME280_temperature;BME280_humidity;BME280_pressure;Samples;Min_cycle;Max_cycle;Signal;HPM_P1;HPM_P2
2023/03/11 00:02:25;;;;;;;10.00;3.05;;;;;;;24.18;36.92;97514.03;4470461;32;33369;-52
2023/03/11 00:04:53;;;;;;;5.93;2.65;;;;;;;24.18;36.84;97505.06;4467519;32;34100;-52
2023/03/11 00:07:21;;;;;;;9.00;2.85;;;;;;;24.17;36.75;97508.91;4467869;32;34784;-53
2023/03/11 00:09:48;;;;;;;4.87;2.50;;;;;;;24.15;36.85;97503.75;4471631;32;33707;-55
2023/03/11 00:12:16;;;;;;;7.62;2.75;;;;;;;24.16;36.86;97505.34;4483083;32;34031;-56
2023/03/11 00:14:43;;;;;;;9.98;2.75;;;;;;;24.15;36.83;97509.19;4483335;32;33269;-56
2023/03/11 00:17:11;;;;;;;7.12;2.65;;;;;;;24.14;36.77;97502.09;4483504;32;33967;-54
2023/03/11 00:19:38;;;;;;;6.97;2.65;;;;;;;24.13;36.90;97505.91;4483113;32;34072;-52
2023/03/11 00:22:06;;;;;;;6.32;2.67;;;;;;;24.14;36.92;97495.84;4483220;32;33641;-56
2023/03/11 00:24:33;;;;;;;5.35;2.92;;;;;;;24.13;36.90;97503.19;4483123;32;33310;-55
2023/03/11 00:27:01;;;;;;;4.78;2.47;;;;;;;24.12;36.90;97498.84;4482936;32;34193;-54
2023/03/11 00:29:28;;;;;;;4.70;2.15;;;;;;;24.12;36.91;97492.59;4482954;32;34137;-54
2023/03/11 00:31:56;;;;;;;5.82;2.80;;;;;;;24.10;36.89;97503.75;4483135;32;33567;-55
2023/03/11 00:34:24;;;;;;;6.25;2.62;;;;;;;24.11;36.83;97507.31;4482970;32;34280;-55
2023/03/11 00:36:53;;;;;;;5.80;2.80;;;;;;;24.11;36.89;97505.41;4483034;32;33885;-51
2023/03/11 00:39:22;;;;;;;8.57;2.83;;;;;;;24.11;37.01;97505.41;4484289;32;34106;-55
2023/03/11 00:41:50;;;;;;;5.47;2.43;;;;;;;24.09;37.05;97507.59;4485106;32;33576;-55
2023/03/11 00:44:18;;;;;;;6.85;2.53;;;;;;;24.11;37.02;97504.59;4483807;32;32770;-51
2023/03/11 00:46:45;;;;;;;6.87;2.80;;;;;;;24.07;37.04;97512.53;4477335;32;33909;-52
2023/03/11 00:49:13;;;;;;;6.25;2.40;;;;;;;24.08;37.05;97518.78;4469433;32;33758;-53
2023/03/11 00:51:40;;;;;;;5.75;2.60;;;;;;;24.07;37.08;97523.41;4469578;32;34436;-53
2023/03/11 00:54:08;;;;;;;5.75;2.62;;;;;;;24.05;37.14;97514.69;4469289;32;34128;-54
2023/03/11 00:56:36;;;;;;;6.55;2.42;;;;;;;24.05;37.17;97527.50;4469401;32;33568;-52
2023/03/11 00:59:03;;;;;;;6.90;2.60;;;;;;;24.05;37.03;97531.03;4468459;32;34003;-53
2023/03/11 01:01:31;;;;;;;7.07;2.83;;;;;;;24.04;36.99;97532.16;4476149;32;34413;-51
2023/03/11 01:03:59;;;;;;;6.97;2.45;;;;;;;24.04;37.10;97518.53;4484867;32;33473;-50
2023/03/11 01:06:26;;;;;;;7.10;2.80;;;;;;;24.04;37.14;97528.62;4484899;32;33817;-52
2023/03/11 01:09:09;;;;;;;5.75;2.70;;;;;;;24.02;37.08;97531.63;4484755;32;34808;-56
2023/03/11 01:11:37;;;;;;;5.07;2.42;;;;;;;24.03;37.10;97529.72;4485170;32;33833;-55
2023/03/11 01:14:04;;;;;;;7.47;2.62;;;;;;;24.02;37.28;97523.47;4485237;32;33078;-55
2023/03/11 01:16:32;;;;;;;4.90;2.65;;;;;;;24.02;37.29;97523.47;4484671;32;33839;-54
2023/03/11 01:19:00;;;;;;;5.82;2.40;;;;;;;24.02;37.22;97531.63;4484771;32;34024;-52
2023/03/11 01:21:27;;;;;;;4.10;2.22;;;;;;;24.02;37.46;97523.47;4484807;32;34128;-50
2023/03/11 01:23:55;;;;;;;6.47;2.50;;;;;;;24.01;37.51;97513.66;4484713;32;33085;-50
2023/03/11 01:26:22;;;;;;;6.40;2.17;;;;;;;24.01;37.55;97519.09;4485179;32;33934;-55
2023/03/11 01:28:50;;;;;;;5.53;2.45;;;;;;;24.02;37.49;97519.94;4484745;32;35057;-52
2023/03/11 01:31:18;;;;;;;4.32;2.05;;;;;;;24.00;37.49;97512.03;4484604;32;34672;-55
2023/03/11 01:33:45;;;;;;;6.32;2.55;;;;;;;24.00;37.39;97517.47;4483481;32;34138;-54
2023/03/11 01:36:12;;;;;;;5.55;2.65;;;;;;;23.99;37.40;97521.31;4484847;32;33726;-51
2023/03/11 01:38:40;;;;;;;5.68;2.30;;;;;;;23.99;37.30;97507.69;4484633;32;34165;-56
2023/03/11 01:41:10;;;;;;;6.32;2.30;;;;;;;23.98;37.34;97522.41;4484784;32;33747;-54
2023/03/11 01:43:43;;;;;;;5.12;2.30;;;;;;;23.99;37.52;97515.03;4484895;32;33996;-55
2023/03/11 01:46:24;;;;;;;4.20;2.22;;;;;;;23.98;37.49;97500.63;4484858;32;34756;-50
2023/03/11 01:48:53;;;;;;;5.68;2.47;;;;;;;23.99;37.58;97502.22;4484637;32;34886;-53
2023/03/11 01:51:37;;;;;;;5.43;2.20;;;;;;;23.96;37.52;97504.72;4484673;32;34166;-52
2023/03/11 01:54:13;;;;;;;5.53;2.58;;;;;;;23.96;37.59;97510.16;4484739;32;33408;-51
2023/03/11 01:56:41;;;;;;;5.75;2.40;;;;;;;23.96;37.39;97516.41;4483437;32;34070;-56
2023/03/11 01:59:10;;;;;;;3.90;2.10;;;;;;;23.96;37.52;97521.06;4484653;32;34736;-48
2023/03/11 02:01:43;;;;;;;5.53;2.60;;;;;;;23.93;37.59;97517.00;4483171;32;33744;-51
2023/03/11 02:04:10;;;;;;;5.50;2.47;;;;;;;23.93;37.59;97517.00;4470630;32;34129;-50
2023/03/11 02:06:38;;;;;;;8.50;2.62;;;;;;;23.94;37.69;97518.63;4483296;32;33610;-55
2023/03/11 02:09:06;;;;;;;6.93;2.60;;;;;;;23.92;37.71;97527.09;4484661;32;33929;-56
2023/03/11 02:11:34;;;;;;;9.00;2.42;;;;;;;23.92;37.74;97529.81;4484698;32;33856;-56
2023/03/11 02:14:02;;;;;;;4.93;2.42;;;;;;;23.92;37.57;97526.25;4483282;32;33778;-52
2023/03/11 02:16:30;;;;;;;10.10;2.22;;;;;;;23.91;37.61;97519.19;4484647;32;33889;-51
2023/03/11 02:18:59;;;;;;;9.05;1.95;;;;;;;23.90;37.63;97526.53;4470440;32;34873;-53
2023/03/11 02:21:30;;;;;;;6.12;2.25;;;;;;;23.91;37.61;97514.53;4484664;32;33536;-55
2023/03/11 02:24:12;;;;;;;3.80;2.03;;;;;;;23.91;37.63;97521.91;4483449;32;34134;-52
2023/03/11 02:26:56;;;;;;;8.02;2.40;;;;;;;23.92;37.63;97515.34;4470532;32;33457;-52
2023/03/11 02:29:25;;;;;;;4.20;2.10;;;;;;;23.89;37.54;97508.56;4471905;32;33656;-54
2023/03/11 02:31:53;;;;;;;4.60;2.55;;;;;;;23.89;37.52;97510.50;4470514;32;33688;-50
2023/03/11 02:34:26;;;;;;;7.05;2.35;;;;;;;23.88;37.52;97509.69;4484343;32;33448;-56
2023/03/11 02:36:54;;;;;;;6.62;2.08;;;;;;;23.88;37.61;97520.56;4483270;32;33928;-51
2023/03/11 02:39:39;;;;;;;6.45;2.12;;;;;;;23.88;37.76;97500.69;4484438;32;33968;-55
2023/03/11 02:42:30;;;;;;;4.95;2.53;;;;;;;23.90;37.76;97517.56;4470498;32;33807;-56
2023/03/11 02:45:11;;;;;;;3.22;1.85;;;;;;;23.88;37.61;97520.56;4484204;32;33396;-52
2023/03/11 02:47:39;;;;;;;6.72;2.30;;;;;;;23.87;37.61;97526.28;4482979;32;34628;-53
2023/03/11 02:50:08;;;;;;;4.15;1.95;;;;;;;23.86;37.63;97524.66;4483270;32;33357;-52
2023/03/11 02:52:35;;;;;;;6.15;2.33;;;;;;;23.84;37.75;97527.69;4470076;31;33997;-49
2023/03/11 02:55:04;;;;;;;6.68;1.90;;;;;;;23.86;37.67;97530.13;4484609;32;33336;-55
2023/03/11 02:57:33;;;;;;;3.50;2.00;;;;;;;23.85;37.75;97534.75;4484183;32;34909;-52
2023/03/11 03:00:10;;;;;;;4.28;1.77;;;;;;;23.85;37.81;97544.84;4483259;32;34711;-54
2023/03/11 03:02:38;;;;;;;4.62;1.73;;;;;;;23.84;38.05;97538.56;4483397;32;34587;-47
2023/03/11 03:05:07;;;;;;;5.35;2.33;;;;;;;23.84;38.02;97546.75;4484034;32;33283;-55
2023/03/11 03:07:35;;;;;;;7.75;1.98;;;;;;;23.84;38.00;97544.03;4484135;32;33866;-53
2023/03/11 03:10:04;;;;;;;4.32;2.03;;;;;;;23.84;37.96;97548.66;4482730;32;34017;-54
2023/03/11 03:12:31;;;;;;;6.35;2.05;;;;;;;23.82;37.91;97546.19;4484034;32;33883;-56
2023/03/11 03:14:59;;;;;;;5.37;2.03;;;;;;;23.83;37.71;97553.28;4484100;32;34150;-56
2023/03/11 03:17:27;;;;;;;4.30;2.10;;;;;;;23.84;37.70;97559.56;4484083;32;34694;-47
2023/03/11 03:19:54;;;;;;;4.75;2.40;;;;;;;23.83;37.71;97561.47;4484283;32;34077;-55
2023/03/11 03:22:26;;;;;;;5.62;2.25;;;;;;;23.83;37.85;97571.56;4483988;32;33990;-48
2023/03/11 03:24:54;;;;;;;4.60;1.98;;;;;;;23.83;37.81;97579.72;4484006;32;34143;-53
2023/03/11 03:27:21;;;;;;;5.82;2.15;;;;;;;23.82;37.83;97575.34;4484173;32;33611;-54
2023/03/11 03:29:50;;;;;;;5.37;2.25;;;;;;;23.83;37.87;97563.38;4484309;32;34004;-55
2023/03/11 03:32:18;;;;;;;4.55;2.08;;;;;;;23.82;37.82;97567.97;4482426;32;34494;-52
2023/03/11 03:34:45;;;;;;;4.35;2.20;;;;;;;23.81;37.82;97571.81;4484094;32;33391;-48
2023/03/11 03:37:13;;;;;;;8.38;2.50;;;;;;;23.80;37.84;97572.91;4484049;32;34808;-49
2023/03/11 03:39:41;;;;;;;5.97;2.03;;;;;;;23.80;37.90;97581.09;4483845;32;34799;-51
2023/03/11 03:42:09;;;;;;;7.45;1.95;;;;;;;23.80;37.82;97570.19;4484065;32;33715;-52
2023/03/11 03:44:37;;;;;;;5.53;1.90;;;;;;;23.79;37.82;97554.97;4483843;32;33425;-50
2023/03/11 03:47:06;;;;;;;4.97;2.00;;;;;;;23.81;37.94;97579.16;4473353;32;33743;-50
2023/03/11 03:49:33;;;;;;;5.43;2.37;;;;;;;23.79;37.84;97584.91;4468288;32;34639;-56
2023/03/11 03:52:03;;;;;;;5.40;1.83;;;;;;;23.80;37.81;97578.34;4468047;32;33695;-57
2023/03/11 03:54:31;;;;;;;5.53;2.08;;;;;;;23.80;37.74;97574.81;4466964;32;33526;-54
2023/03/11 03:56:59;;;;;;;5.62;2.30;;;;;;;23.80;37.79;97558.50;4468167;32;34706;-54
2023/03/11 03:59:27;;;;;;;4.57;2.10;;;;;;;23.78;37.75;97579.72;4467902;32;33892;-48
2023/03/11 04:01:56;;;;;;;4.22;1.80;;;;;;;23.78;37.85;97574.28;4466327;32;34498;-56
2023/03/11 04:04:24;;;;;;;9.18;2.47;;;;;;;23.77;37.87;97575.38;4468038;32;34250;-53
2023/03/11 04:06:52;;;;;;;5.70;1.98;;;;;;;23.76;37.88;97585.47;4467767;32;33867;-52
2023/03/11 04:09:19;;;;;;;4.93;2.00;;;;;;;23.75;37.87;97585.75;4466661;32;34083;-50
2023/03/11 04:11:47;;;;;;;5.28;2.12;;;;;;;23.74;37.87;97590.38;4467869;32;33367;-56
2023/03/11 04:14:15;;;;;;;3.75;1.80;;;;;;;23.74;37.87;97597.75;4468524;32;34086;-51
2023/03/11 04:16:43;;;;;;;4.57;2.15;;;;;;;23.74;37.93;97598.56;4469861;32;33790;-56
2023/03/11 04:19:11;;;;;;;11.60;2.33;;;;;;;23.73;37.91;97604.25;4469838;32;33910;-55
2023/03/11 04:21:39;;;;;;;4.30;2.22;;;;;;;23.74;37.91;97600.47;4469704;32;33587;-53
2023/03/11 04:24:07;;;;;;;3.40;1.65;;;;;;;23.73;37.82;97601.53;4469554;32;33533;-53
2023/03/11 04:26:35;;;;;;;5.75;1.90;;;;;;;23.72;37.86;97580.88;4469419;32;33942;-53
2023/03/11 04:29:02;;;;;;;4.60;1.90;;;;;;;23.73;37.89;97607.00;4469540;32;33896;-51
2023/03/11 04:31:31;;;;;;;4.70;2.00;;;;;;;23.71;37.87;97609.19;4469962;32;33475;-48
2023/03/11 04:33:59;;;;;;;5.62;1.87;;;;;;;23.71;37.92;97617.38;4468379;32;33435;-49
2023/03/11 04:36:26;;;;;;;3.33;1.90;;;;;;;23.71;37.94;97611.91;4469407;32;34039;-52
2023/03/11 04:38:55;;;;;;;3.08;1.67;;;;;;;23.71;37.82;97603.75;4469658;32;34267;-51
2023/03/11 04:41:24;;;;;;;5.28;1.98;;;;;;;23.70;37.78;97619.28;4469768;32;34578;-47
2023/03/11 04:43:51;;;;;;;3.80;2.00;;;;;;;23.70;37.77;97597.50;4468114;32;31953;-53
2023/03/11 04:46:19;;;;;;;7.62;2.20;;;;;;;23.70;37.83;97616.56;4473439;32;34714;-52
2023/03/11 04:48:47;;;;;;;5.90;1.90;;;;;;;23.68;37.81;97592.31;4485413;32;34027;-56
2023/03/11 04:51:15;;;;;;;5.28;2.08;;;;;;;23.68;37.87;97597.75;4485139;32;33993;-47
2023/03/11 04:53:42;;;;;;;4.85;1.65;;;;;;;23.68;37.94;97605.09;4485289;31;33209;-50
2023/03/11 04:56:10;;;;;;;3.58;1.95;;;;;;;23.68;37.85;97594.22;4485401;32;34560;-53
2023/03/11 04:58:38;;;;;;;5.97;1.98;;;;;;;23.67;37.97;97603.50;4483916;32;34010;-50
2023/03/11 05:01:05;;;;;;;4.82;1.98;;;;;;;23.67;37.96;97596.12;4485345;32;33485;-50
2023/03/11 05:03:33;;;;;;;6.57;2.20;;;;;;;23.67;37.92;97609.75;4485167;32;34111;-48
2023/03/11 05:06:01;;;;;;;4.68;2.25;;;;;;;23.66;37.88;97605.41;4485041;32;33792;-53
2023/03/11 05:08:29;;;;;;;4.30;1.87;;;;;;;23.65;37.95;97601.06;4485227;32;33990;-48
2023/03/11 05:10:57;;;;;;;4.93;1.60;;;;;;;23.65;37.95;97600.25;4485301;32;33837;-52
2023/03/11 05:13:24;;;;;;;6.53;2.10;;;;;;;23.65;37.92;97602.97;4484870;32;34266;-52
2023/03/11 05:15:52;;;;;;;4.50;2.30;;;;;;;23.64;37.92;97604.03;4471241;32;33635;-53
2023/03/11 05:18:20;;;;;;;4.22;1.92;;;;;;;23.63;38.02;97608.63;4484779;32;34732;-52
2023/03/11 05:20:48;;;;;;;4.07;1.60;;;;;;;23.63;37.89;97627.69;4481368;32;32734;-55
2023/03/11 05:23:16;;;;;;;5.47;1.85;;;;;;;23.64;38.00;97623.09;4469382;32;33368;-50
2023/03/11 05:25:44;;;;;;;5.95;1.80;;;;;;;23.63;37.95;97630.41;4468808;32;33737;-56
2023/03/11 05:28:11;;;;;;;4.03;1.95;;;;;;;23.63;37.94;97630.41;4467945;32;33343;-50
2023/03/11 05:30:39;;;;;;;3.35;1.85;;;;;;;23.63;37.95;97645.94;4469371;32;34469;-55
2023/03/11 05:33:08;;;;;;;3.53;1.80;;;;;;;23.63;37.90;97635.88;4469121;32;34196;-51
2023/03/11 05:35:35;;;;;;;4.15;1.75;;;;;;;23.63;37.92;97645.94;4469353;32;33989;-54
2023/03/11 05:38:03;;;;;;;5.32;1.98;;;;;;;23.61;37.91;97653.59;4469298;32;34343;-49
2023/03/11 05:40:32;;;;;;;3.17;1.60;;;;;;;23.61;37.87;97659.84;4469086;32;35266;-51
2023/03/11 05:42:59;;;;;;;3.42;1.60;;;;;;;23.61;37.86;97684.34;4469333;32;34138;-53
2023/03/11 05:45:28;;;;;;;3.62;1.90;;;;;;;23.60;37.85;97669.13;4469175;32;33935;-51
2023/03/11 05:47:56;;;;;;;3.28;1.75;;;;;;;23.60;37.81;97681.91;4482165;32;34171;-54
2023/03/11 05:50:24;;;;;;;4.30;1.80;;;;;;;23.60;37.86;97685.44;4484914;32;33925;-48
2023/03/11 05:52:52;;;;;;;7.12;1.85;;;;;;;23.60;37.79;97685.44;4484813;32;34105;-51
2023/03/11 05:55:19;;;;;;;4.00;1.80;;;;;;;23.60;37.77;97690.87;4484739;32;33322;-52
2023/03/11 05:57:50;;;;;;;5.85;2.00;;;;;;;23.60;37.80;97680.00;4484889;32;34098;-47
2023/03/11 06:00:19;;;;;;;6.32;1.85;;;;;;;23.58;37.96;97678.63;4484497;32;33786;-50
2023/03/11 06:02:47;;;;;;;6.95;2.20;;;;;;;23.58;37.91;97687.62;4484524;32;33780;-52
2023/03/11 06:05:15;;;;;;;4.65;1.90;;;;;;;23.59;37.86;97680.25;4484831;32;34396;-53
2023/03/11 06:07:42;;;;;;;5.03;1.95;;;;;;;23.57;37.85;97691.44;4484495;32;33960;-47
2023/03/11 06:10:11;;;;;;;5.00;1.83;;;;;;;23.59;37.83;97693.88;4484492;32;34444;-55
2023/03/11 06:12:38;;;;;;;5.68;1.92;;;;;;;23.57;37.84;97686.00;4470463;32;33364;-47
2023/03/11 06:15:07;;;;;;;4.47;1.73;;;;;;;23.56;37.82;97695.25;4483612;32;34592;-52
2023/03/11 06:17:35;;;;;;;4.47;2.00;;;;;;;23.57;37.85;97706.97;4484541;32;33676;-50
2023/03/11 06:20:04;;;;;;;6.65;2.12;;;;;;;23.56;37.84;97708.88;4484441;32;33970;-50
2023/03/11 06:22:32;;;;;;;4.95;1.83;;;;;;;23.56;37.83;97719.75;4484466;32;33494;-56
2023/03/11 06:25:00;;;;;;;3.92;1.73;;;;;;;23.56;37.82;97746.97;4484447;32;33846;-53
2023/03/11 06:27:30;;;;;;;7.55;2.03;;;;;;;23.57;37.86;97751.31;4483473;32;34850;-50
2023/03/11 06:29:57;;;;;;;4.75;1.60;;;;;;;23.57;37.84;97764.12;4484554;32;33278;-54
2023/03/11 06:32:25;;;;;;;3.70;1.80;;;;;;;23.56;37.80;97749.69;4484759;32;33341;-50
2023/03/11 06:34:53;;;;;;;6.47;1.58;;;;;;;23.55;37.85;97753.53;4484407;32;34313;-50
2023/03/11 06:37:23;;;;;;;6.35;1.85;;;;;;;23.56;37.84;97766.03;4483436;32;34532;-52
2023/03/11 06:39:52;;;;;;;6.25;1.67;;;;;;;23.55;37.87;97766.28;4484384;32;33735;-48
2023/03/11 06:42:22;;;;;;;4.03;1.70;;;;;;;23.54;37.83;97783.72;4483133;32;33349;-51
2023/03/11 06:44:51;;;;;;;2.58;1.55;;;;;;;23.55;37.83;97793.50;4483252;32;34619;-49
2023/03/11 06:47:19;;;;;;;4.60;1.55;;;;;;;23.55;37.82;97801.69;4473679;32;34305;-54
2023/03/11 06:49:49;;;;;;;5.03;1.77;;;;;;;23.53;37.77;97796.53;4468846;32;33646;-52
2023/03/11 06:52:16;;;;;;;4.47;2.00;;;;;;;23.52;37.84;97805.78;4468591;32;32882;-50
2023/03/11 06:54:44;;;;;;;4.68;1.48;;;;;;;23.53;37.88;97804.69;4468856;32;33637;-47
2023/03/11 06:57:13;;;;;;;4.05;1.65;;;;;;;23.54;37.82;97810.94;4467582;32;32922;-52
2023/03/11 06:59:41;;;;;;;8.55;2.10;;;;;;;23.54;37.88;97805.50;4468739;32;34438;-48
2023/03/11 07:02:11;;;;;;;6.20;2.20;;;;;;;23.53;37.92;97801.16;4468623;32;34133;-52
2023/03/11 07:04:40;;;;;;;5.00;1.80;;;;;;;23.52;37.82;97794.91;4454968;32;34674;-50
2023/03/11 07:07:07;;;;;;;4.28;1.70;;;;;;;23.53;37.78;97801.16;4468398;32;33954;-47
2023/03/11 07:09:35;;;;;;;5.37;1.70;;;;;;;23.52;37.81;97804.97;4468425;32;34603;-51
2023/03/11 07:12:03;;;;;;;5.82;1.95;;;;;;;23.52;37.83;97819.41;4468619;32;34057;-50
2023/03/11 07:14:33;;;;;;;;;;;;;;;23.51;37.85;97817.78;4469098;32;33663;-48
2023/03/11 07:17:01;;;;;;;3.17;1.50;;;;;;;23.61;37.65;97816.94;4468380;32;34114;-50
2023/03/11 07:19:29;;;;;;;3.42;1.73;;;;;;;23.53;37.71;97818.28;4468446;32;34379;-48
2023/03/11 07:21:56;;;;;;;4.60;1.60;;;;;;;23.50;37.83;97831.63;4468342;32;34051;-50
2023/03/11 07:24:24;;;;;;;3.83;1.70;;;;;;;23.49;37.76;97836.25;4468320;32;34652;-49
2023/03/11 07:26:51;;;;;;;4.47;1.87;;;;;;;23.48;37.76;97831.91;4468030;32;34052;-49
2023/03/11 07:29:19;;;;;;;4.22;1.80;;;;;;;23.48;37.81;97834.63;4468262;32;33911;-52
2023/03/11 07:31:48;;;;;;;2.42;1.50;;;;;;;23.48;37.87;97831.91;4468098;32;33458;-53
2023/03/11 07:34:15;;;;;;;2.72;1.40;;;;;;;23.47;37.81;97822.13;4466840;32;33918;-49
2023/03/11 07:36:43;;;;;;;3.03;1.50;;;;;;;23.46;37.86;97828.66;4466865;32;34037;-50
2023/03/11 07:39:14;;;;;;;3.55;1.70;;;;;;;23.47;37.82;97813.97;4468175;32;33579;-50
2023/03/11 07:41:41;;;;;;;7.47;1.62;;;;;;;23.47;37.93;97824.03;4466846;32;33465;-51
2023/03/11 07:44:12;;;;;;;5.95;1.67;;;;;;;23.48;37.86;97807.41;4468072;32;34365;-50
2023/03/11 07:46:40;;;;;;;4.97;1.70;;;;;;;23.47;37.96;97816.69;4472961;32;34897;-53
2023/03/11 07:49:08;;;;;;;5.15;2.00;;;;;;;23.47;37.94;97810.44;4483391;32;33999;-55
2023/03/11 07:51:36;;;;;;;4.10;1.73;;;;;;;23.47;37.92;97827.56;4483660;32;33126;-53
2023/03/11 07:54:04;;;;;;;3.53;1.70;;;;;;;23.46;37.93;97820.50;4483476;32;34694;-50
2023/03/11 07:56:32;;;;;;;3.78;1.62;;;;;;;23.47;37.92;97822.13;4482276;32;33646;-54
2023/03/11 07:59:00;;;;;;;4.30;1.60;;;;;;;23.47;37.82;97833.00;4483456;32;33984;-47
2023/03/11 08:01:35;;;;;;;3.45;1.50;;;;;;;23.46;37.92;97825.12;4483373;32;33401;-56
2023/03/11 08:04:04;;;;;;;12.07;1.92;;;;;;;23.46;37.91;97811.53;4483461;32;33776;-54
2023/03/11 08:06:32;;;;;;;5.50;2.10;;;;;;;23.46;37.94;97803.34;4483175;32;33912;-50
2023/03/11 08:09:00;;;;;;;2.60;1.33;;;;;;;23.47;37.99;97796.81;4483364;32;34149;-56
2023/03/11 08:11:29;;;;;;;4.68;1.45;;;;;;;23.47;37.98;97799.53;4481632;32;33392;-51
2023/03/11 08:13:56;;;;;;;6.35;1.70;;;;;;;23.47;37.98;97815.88;4481959;32;34506;-55
2023/03/11 08:16:24;;;;;;;4.40;1.80;;;;;;;23.47;37.83;97826.75;4483016;32;34444;-53
2023/03/11 08:18:52;;;;;;;6.18;1.40;;;;;;;23.50;37.80;97840.66;4482205;32;34021;-53
2023/03/11 08:21:21;;;;;;;3.55;1.23;;;;;;;23.50;37.70;97854.25;4483170;32;34080;-54
2023/03/11 08:23:49;;;;;;;2.77;1.30;;;;;;;23.52;37.68;97873.03;4483275;32;33717;-50
2023/03/11 08:26:18;;;;;;;2.78;1.20;;;;;;;23.52;37.62;97852.06;4481833;32;34882;-56
2023/03/11 08:28:46;;;;;;;4.43;1.40;;;;;;;23.52;37.59;97838.44;4482900;32;33903;-55
2023/03/11 08:31:14;;;;;;;2.87;1.20;;;;;;;23.54;37.53;97846.34;4482904;32;34024;-54
2023/03/11 08:33:43;;;;;;;3.42;1.20;;;;;;;23.52;37.50;97834.91;4467455;32;34690;-56
2023/03/11 08:36:11;;;;;;;12.93;2.20;;;;;;;23.52;37.44;97802.25;4465968;32;34469;-54
2023/03/11 08:38:39;;;;;;;6.32;1.67;;;;;;;23.55;36.16;97785.34;4465956;32;34111;-57
2023/03/11 08:41:07;;;;;;;7.05;1.50;;;;;;;23.48;33.54;97772.03;4467213;32;32896;-53
2023/03/11 08:43:34;;;;;;;4.95;1.35;;;;;;;23.45;34.75;97772.56;4453186;32;33994;-53
2023/03/11 08:46:02;;;;;;;4.22;1.15;;;;;;;23.45;35.39;97766.31;4469053;32;34570;-47
2023/03/11 08:48:30;;;;;;;4.78;1.42;;;;;;;23.46;35.69;97767.97;4481393;32;33346;-53
2023/03/11 08:50:58;;;;;;;6.05;1.50;;;;;;;23.46;35.88;97785.13;4482495;32;33446;-52
2023/03/11 08:53:25;;;;;;;9.68;1.55;;;;;;;23.47;36.10;97796.81;4482576;32;33939;-50
2023/03/11 08:55:53;;;;;;;6.78;1.58;;;;;;;23.47;36.23;97822.13;4482747;32;34171;-55
2023/03/11 08:58:21;;;;;;;3.83;1.35;;;;;;;23.49;36.31;97824.56;4482316;32;34620;-55
2023/03/11 09:00:48;;;;;;;4.20;1.12;;;;;;;23.49;36.36;97828.09;4483117;32;33294;-53
2023/03/11 09:03:16;;;;;;;3.12;1.27;;;;;;;23.50;36.39;97832.47;4484567;32;33935;-57
2023/03/11 09:05:43;;;;;;;6.40;1.27;;;;;;;23.51;36.41;97853.16;4484780;32;33947;-55
2023/03/11 09:08:11;;;;;;;5.70;1.67;;;;;;;23.52;36.39;97873.03;4484677;32;34645;-58
2023/03/11 09:10:39;;;;;;;6.10;1.55;;;;;;;23.52;36.37;97862.94;4484709;32;33915;-54
2023/03/11 09:13:06;;;;;;;4.05;1.20;;;;;;;23.54;36.42;97884.44;4484952;32;33545;-56
2023/03/11 09:15:35;;;;;;;5.87;1.45;;;;;;;23.54;36.45;97876.28;4484730;32;34640;-50
2023/03/11 09:18:03;;;;;;;3.22;1.30;;;;;;;23.54;36.50;97900.78;4484483;32;33753;-56
2023/03/11 09:20:30;;;;;;;6.10;1.62;;;;;;;23.56;36.58;97907.59;4484522;32;33048;-57
2023/03/11 09:22:58;;;;;;;6.25;1.42;;;;;;;23.57;36.69;97916.56;4479236;32;33651;-50
2023/03/11 09:25:26;;;;;;;4.72;1.40;;;;;;;23.58;36.81;97908.12;4467329;32;33614;-59
2023/03/11 09:27:53;;;;;;;6.10;1.55;;;;;;;23.58;36.90;97919.00;4475570;32;33937;-51
2023/03/11 09:30:21;;;;;;;5.15;1.40;;;;;;;23.60;36.92;97930.47;4484571;32;33440;-55
2023/03/11 09:32:49;;;;;;;4.90;1.52;;;;;;;23.60;36.98;97933.19;4483367;32;34612;-51
2023/03/11 09:35:16;;;;;;;8.93;1.52;;;;;;;23.64;37.11;97931.59;4484312;32;34075;-56
2023/03/11 09:37:44;;;;;;;6.20;1.25;;;;;;;23.67;37.34;97930.22;4484331;32;33803;-51
2023/03/11 09:40:16;;;;;;;8.77;1.52;;;;;;;23.78;37.32;97934.56;4484504;32;33485;-55
2023/03/11 09:42:48;;;;;;;1.98;0.90;;;;;;;23.84;37.29;97941.66;4483089;32;34688;-57
2023/03/11 09:45:34;;;;;;;5.32;1.25;;;;;;;23.87;37.31;97935.63;4483113;32;34750;-49
2023/03/11 09:48:17;;;;;;;6.10;1.23;;;;;;;24.00;37.11;97926.09;4470047;32;34240;-48
2023/03/11 09:50:52;;;;;;;2.87;1.20;;;;;;;24.12;36.95;97937.50;4484513;32;32816;-58
2023/03/11 09:53:34;;;;;;;4.55;1.05;;;;;;;24.25;36.75;97938.84;4482940;32;33368;-58
2023/03/11 09:56:23;;;;;;;5.20;1.45;;;;;;;24.41;36.53;97956.81;4483187;32;32952;-49
2023/03/11 09:59:20;;;;;;;7.00;1.40;;;;;;;24.56;36.32;97946.94;4480395;32;34507;-54
2023/03/11 10:01:48;;;;;;;6.95;1.33;;;;;;;24.67;36.14;97948.56;4453425;32;33918;-55
2023/03/11 10:04:19;;;;;;;6.12;1.15;;;;;;;24.79;35.99;97949.03;4477944;32;33980;-54
2023/03/11 10:06:47;;;;;;;4.78;1.30;;;;;;;24.89;35.87;97950.87;4468497;32;33670;-57
2023/03/11 10:09:36;;;;;;;4.12;1.50;;;;;;;25.01;35.70;97945.13;4468704;32;33885;-56
2023/03/11 10:12:27;;;;;;;7.37;1.23;;;;;;;25.14;35.50;97936.34;4467220;32;33180;-48
2023/03/11 10:15:17;;;;;;;6.03;1.20;;;;;;;25.27;35.35;97940.31;4474395;32;33952;-58
2023/03/11 10:18:06;;;;;;;7.75;1.52;;;;;;;25.33;35.23;97945.50;4464925;32;33618;-56
2023/03/11 10:20:57;;;;;;;6.78;1.23;;;;;;;25.45;35.08;97950.56;4472587;32;35118;-57
2023/03/11 10:23:31;;;;;;;5.35;1.23;;;;;;;25.53;35.00;97954.62;4468139;32;33324;-54
2023/03/11 10:26:18;;;;;;;7.22;1.40;;;;;;;25.63;34.86;97958.09;4478950;32;33426;-57
2023/03/11 10:28:50;;;;;;;4.75;1.08;;;;;;;25.74;34.73;97982.59;4461120;32;33981;-58
2023/03/11 10:31:26;;;;;;;5.32;1.50;;;;;;;25.82;34.62;98009.31;4472618;32;33501;-52
2023/03/11 10:34:14;;;;;;;5.45;1.37;;;;;;;25.89;34.49;97993.44;4467243;32;33570;-52
2023/03/11 10:37:05;;;;;;;7.57;1.30;;;;;;;25.97;34.36;98013.84;4477814;32;33802;-60
2023/03/11 10:39:33;;;;;;;6.57;1.62;;;;;;;26.00;34.31;98025.03;4472647;32;34010;-50
2023/03/11 10:42:04;;;;;;;5.20;1.33;;;;;;;26.02;34.28;98044.72;4476806;32;33700;-58
2023/03/11 10:44:34;;;;;;;6.57;1.52;;;;;;;26.08;34.23;98043.56;4479588;32;33390;-49
2023/03/11 10:47:02;;;;;;;5.18;1.40;;;;;;;26.14;34.12;98017.78;4466814;32;34569;-59
2023/03/11 10:49:29;;;;;;;3.78;1.30;;;;;;;26.21;33.97;98014.75;4472732;32;33906;-53
2023/03/11 10:51:57;;;;;;;6.80;1.65;;;;;;;26.27;33.77;98013.59;4473621;32;33446;-57
2023/03/11 10:54:30;;;;;;;5.97;1.37;;;;;;;26.34;33.60;98013.22;4481247;32;33744;-59
2023/03/11 10:57:02;;;;;;;3.42;1.37;;;;;;;26.41;33.36;98000.06;4482723;32;34651;-57
2023/03/11 10:59:44;;;;;;;5.80;1.58;;;;;;;26.45;33.19;98001.94;4468214;32;34738;-59
2023/03/11 11:02:25;;;;;;;6.80;1.62;;;;;;;26.49;33.04;98004.94;4467963;32;32982;-59
2023/03/11 11:05:04;;;;;;;3.42;1.35;;;;;;;26.55;32.80;98016.63;4478780;32;34176;-53
2023/03/11 11:07:34;;;;;;;5.62;1.45;;;;;;;26.55;32.72;98020.16;4477919;32;34093;-55
2023/03/11 11:10:11;;;;;;;4.32;1.30;;;;;;;26.54;32.63;98024.00;4474701;32;33599;-58
2023/03/11 11:12:58;;;;;;;5.53;1.35;;;;;;;26.57;32.54;98025.34;4468291;32;34695;-59
2023/03/11 11:15:31;;;;;;;4.15;1.20;;;;;;;26.56;32.44;98023.72;4476600;32;34478;-58
2023/03/11 11:18:17;;;;;;;4.25;1.20;;;;;;;26.52;32.22;98050.00;4482233;32;34063;-58
2023/03/11 11:21:01;;;;;;;5.80;1.30;;;;;;;26.49;32.03;98042.37;4476972;32;33689;-56
2023/03/11 11:23:40;;;;;;;2.00;1.30;;;;;;;26.47;31.88;98055.53;4466334;32;33997;-55
2023/03/11 11:26:19;;;;;;;6.67;1.10;;;;;;;26.42;31.98;98053.62;4477648;32;33418;-58
2023/03/11 11:29:03;;;;;;;6.30;1.15;;;;;;;26.38;32.03;98041.63;4479390;32;34073;-54
2023/03/11 11:31:33;;;;;;;4.97;1.20;;;;;;;26.34;32.08;98038.66;4483805;32;34979;-56
2023/03/11 11:34:01;;;;;;;7.22;1.33;;;;;;;26.28;32.03;98058.13;4469460;32;34582;-53
2023/03/11 11:36:29;;;;;;;4.25;1.37;;;;;;;26.23;31.90;98031.66;4470965;32;32926;-58
2023/03/11 11:38:58;;;;;;;6.62;1.30;;;;;;;26.16;31.91;98058.50;4480854;32;33696;-55
2023/03/11 11:41:26;;;;;;;5.75;1.50;;;;;;;26.11;31.76;98032.06;4469060;32;34150;-59
2023/03/11 11:44:02;;;;;;;6.00;1.85;;;;;;;26.07;31.76;98063.78;4482710;32;33412;-53
2023/03/11 11:46:37;;;;;;;5.90;1.30;;;;;;;26.03;31.72;98072.84;4466251;32;32255;-58
2023/03/11 11:49:06;;;;;;;6.47;1.50;;;;;;;25.99;31.53;98082.72;4477617;32;33834;-55